Bridgeport Valley, California Weather observations

Data are for 10 minute period ending at time listed.
 Day   Time   Solar   Ave.   Ave.  Ave.  Vector  Max.   Baro.   Total    
  of    of     Rad.   Air    Rel.  Wind   Wind   Wind  Press.  Precip.   
Year   Day            Temp.  Hum.  Speed  Dir.   Gust                    
2017   (PST)  Kw/m2    F      %     mph   deg.    mph    mb.     in.     
-------------------------------------------------------------------------
 112   13:30   0.94   63.5    22    6.4   230    17.6   800.7    0.00 
 112   13:40   1.10   64.4    22    8.6   210    17.2   800.7    0.00 
 112   13:50   1.20   65.0    21    6.2   208    13.7   800.6    0.00 
 112   14:00   1.07   65.2    23    6.5   208    13.1   800.5    0.00 
 112   14:10   1.03   64.8    24   10.7   197    23.8   800.4    0.00 
 112   14:20   1.02   64.1    22    7.1   230    14.4   800.5    0.00 
 112   14:30   0.93   64.6    25    7.1   235    19.8   800.4    0.00 
 112   14:40   0.90   63.5    25    9.4   233    17.8   800.2    0.00 
 112   14:50   0.79   63.6    24    8.6   177    16.5   799.7    0.00 
 112   15:00   0.68   63.4    24    6.9   222    17.8   799.8    0.00 
 112   15:10   0.60   62.1    27   10.6   224    20.9   800.0    0.00 
 112   15:20   0.64   62.1    27    9.1   216    17.5   800.0    0.00 
 112   15:30   0.63   62.4    26    7.5   224    15.9   799.7    0.00 
 112   15:40   0.50   61.5    26   10.9   211    20.4   799.9    0.00 
 112   15:50   0.36   61.3    23    6.7   168    18.1   799.5    0.00 
 112   16:00   0.35   61.3    25    9.0   182    18.5   799.6    0.00 
 112   16:10   0.28   60.0    25    9.2   235    21.8   799.8    0.00 
 112   16:20   0.26   59.9    24    4.6   180    13.0   799.8    0.00 
 112   16:30   0.28   59.9    25    6.0   203    13.6   799.9    0.00 
 112   16:40   0.30   59.8    25    6.9   190    13.4   799.9    0.00 
 112   16:50   0.26   59.7    22    6.6   193    15.1   799.8    0.00 
 112   17:00   0.20   59.1    23    7.9   194    19.5   799.7    0.00 
 112   17:10   0.22   59.3    25    3.1   239     9.9   799.8    0.00 
 112   17:20   0.17   58.7    23    9.6   140    16.9   799.7    0.00 
 112   17:30   0.09   56.9    27   10.5   146    16.3   799.6    0.00 
 112   17:40   0.08   55.7    28    9.7   157    17.4   799.6    0.00 
 112   17:50   0.06   55.4    27   10.9   159    17.6   799.6    0.00 
 112   18:00   0.04   56.1    25    4.6   167    14.4   799.7    0.00 
 112   18:10   0.02   55.0    27    5.1   176    10.2   799.6    0.00 
 112   18:20   0.02   54.6    28    7.2   157    13.5   799.5    0.00 
 112   18:30   0.01   54.3    28    6.3   215    11.0   799.6    0.00 
 112   18:40   0.01   54.7    28    6.1   206     9.9   799.3    0.00 
 112   18:50   0.00   53.2    31    7.9   228    13.4   799.4    0.00 
 112   19:00   0.00   54.8    27    4.9   180    10.7   799.6    0.00 
 112   19:10   0.00   54.0    30    7.4   191    15.5   799.6    0.00 
 112   19:20   0.00   53.1    31    8.9   218    18.3   799.7    0.00 
 112   19:30   0.00   53.0    30    5.4   219    11.1   799.7    0.00 
 112   19:40   0.00   52.8    30    6.6   207    13.4   799.9    0.00 
 112   19:50   0.00   52.4    32    8.8   251    18.0   799.7    0.00 
 112   20:00   0.00   52.2    32   11.2   214    18.8   799.7    0.00 
 112   20:10   0.00   52.9    30    5.8   170    14.3   799.2    0.00 
 112   20:20   0.00   51.6    34    8.4   238    17.3   799.4    0.00 
 112   20:30   0.00   52.0    35   12.5   208    18.9   799.8    0.00 
 112   20:40   0.00   51.7    35    9.1   226    18.8   800.1    0.00 
 112   20:50   0.00   51.5    37   10.3   216    14.8   799.9    0.00 
 112   21:00   0.00   50.6    39    7.0   214    13.2   799.9    0.00 
 112   21:10   0.00   49.7    42    2.7   271     6.2   799.9    0.00 
 112   21:20   0.00   48.9    45    4.4   290     9.0   800.0    0.00 
 112   21:30   0.00   48.5    44    3.6   304     8.3   800.0    0.00 
 112   21:40   0.00   47.9    45    1.1   297     2.9   800.0    0.00 
 112   21:50   0.00   45.9    48    2.0    91     5.2   799.9    0.00 
 112   22:00   0.00   48.2    43    1.5   129     5.1   799.8    0.00 
 112   22:10   0.00   48.4    42    4.5   219    11.8   799.8    0.00 
 112   22:20   0.00   48.0    43    4.2   244     8.5   799.6    0.00 
 112   22:30   0.00   48.0    42    4.0   257    10.3   799.4    0.00 
 112   22:40   0.00   47.3    42    2.8   176     8.1   799.3    0.00 
 112   22:50   0.00   47.6    40    3.9   131     8.0   799.2    0.00 
 112   23:00   0.00   49.9    34    4.4   121     9.2   799.1    0.00 
 112   23:10   0.00   48.7    36    3.7    82     9.0   799.0    0.00 
 112   23:20   0.00   48.0    37    5.1    25     8.2   798.8    0.00 
 112   23:30   0.00   47.7    37    4.6    15     8.6   798.7    0.00 
 112   23:40   0.00   49.2    33    4.8   330    10.1   798.6    0.00 
 112   23:50   0.00   48.2    35    5.2    20    10.0   798.6    0.00 
 113    0:00   0.00   47.1    38    3.9   325     8.0   798.5    0.00 
 113    0:10   0.00   47.1    38    4.6   202    10.4   798.4    0.00 
 113    0:20   0.00   45.7    40    4.3   297     8.7   798.2    0.00 
 113    0:30   0.00   47.2    38    7.5   246    15.9   797.9    0.00 
 113    0:40   0.00   49.3    32    6.3   236    13.3   797.8    0.00 
 113    0:50   0.00   48.5    35    7.0   246    16.7   797.6    0.00 
 113    1:00   0.00   49.8    33    9.5   225    19.9   797.5    0.00 
 113    1:10   0.00   49.5    34   11.8   221    22.2   797.4    0.00 
 113    1:20   0.00   49.7    33    6.4   242    16.4   797.4    0.00 
 113    1:30   0.00   48.7    36    9.7   261    20.2   797.2    0.00 
 113    1:40   0.00   45.6    43   11.8   299    20.2   797.1    0.00 
 113    1:50   0.00   47.2    38   10.3   319    18.1   797.2    0.00 
 113    2:00   0.00   46.4    42   11.1   358    16.4   797.0    0.00 
 113    2:10   0.00   48.5    36    7.2   352    19.7   797.0    0.00 
 113    2:20   0.00   50.5    32    7.0   109    16.4   797.0    0.00 
 113    2:30   0.00   49.2    36    4.6   168    16.4   796.9    0.00 
 113    2:40   0.00   48.3    38    6.9   308    15.3   796.8    0.00 
 113    2:50   0.00   49.7    35   10.8   248    18.6   796.7    0.00 
 113    3:00   0.00   50.4    34    9.7   232    20.3   796.8    0.00 
 113    3:10   0.00   49.7    36   11.3   255    20.3   796.5    0.00 
 113    3:20   0.00   47.3    41    4.9   206    18.6   796.5    0.00 
 113    3:30   0.00   44.9    45    7.0   175    14.2   796.7    0.00 
 113    3:40   0.00   49.7    34    4.3    68    10.7   796.5    0.00 
 113    3:50   0.00   49.0    37    7.6   307    17.3   796.4    0.00 
 113    4:00   0.00   47.5    40    8.6   254    17.7   796.4    0.00 
 113    4:10   0.00   43.9    49    7.2   226    13.2   796.5    0.00 
 113    4:20   0.00   48.9    35    5.5   245    19.4   796.5    0.00 
 113    4:30   0.00   48.9    38    9.0   301    23.2   796.5    0.00 
 113    4:40   0.00   46.2    46    9.7   275    16.7   796.3    0.00 
 113    4:50   0.00   44.9    48    9.3   205    15.5   796.8    0.00 
 113    5:00   0.00   49.0    37    7.1   128    14.0   797.0    0.00 
 113    5:10   0.00   49.1    38    7.5   264    16.6   797.0    0.00 
 113    5:20   0.01   49.2    37   10.5   230    17.8   797.2    0.00 
 113    5:30   0.01   49.9    36    5.4   256    15.8   797.3    0.00 
 113    5:40   0.02   48.0    42    5.6   188    15.3   797.3    0.00 
 113    5:50   0.03   47.7    43    4.2   236    10.8   797.3    0.00 
 113    6:00   0.03   47.4    45    6.0   309    10.1   797.3    0.00 
 113    6:10   0.03   47.1    47    8.9   324    13.4   797.3    0.00 
 113    6:20   0.11   47.1    48    9.7   311    17.2   797.3    0.00 
 113    6:30   0.21   48.8    46    8.5   315    12.9   797.4    0.00 
 113    6:40   0.25   50.1    41    8.3   300    13.6   797.5    0.00 
 113    6:50   0.29   50.6    42    8.8   301    14.2   797.4    0.00 
 113    7:00   0.32   51.2    35    9.1   288    16.1   797.4    0.00 
 113    7:10   0.33   51.7    31   10.2   254    19.7   797.5    0.00 
 113    7:20   0.40   52.1    29    7.9   232    20.0   797.8    0.00 
 113    7:30   0.20   51.9    27    5.0   188    12.3   798.0    0.00 
 113    7:40   0.11   49.8    31    9.8   248    29.0   798.2    0.00 
 113    7:50   0.09   48.4    36   13.5   245    24.5   798.1    0.00 
 113    8:00   0.09   47.5    41   12.9   243    21.3   798.2    0.00 
 113    8:10   0.12   47.6    42    7.7   239    15.3   798.1    0.00 
 113    8:20   0.12   47.7    40    5.8   223    11.0   798.2    0.00 
 113    8:30   0.14   47.5    42    5.9   257    13.2   798.4    0.00 
 113    8:40   0.22   47.8    41    3.9   195    11.8   798.2    0.00 
 113    8:50   0.28   48.7    34    3.6   199     9.7   798.1    0.00 
 113    9:00   0.30   49.5    33    6.5   229    14.7   797.9    0.00 
 113    9:10   0.43   50.2    30    9.3   212    29.7   797.9    0.00 
 113    9:20   0.34   51.3    32    6.7   222    14.6   797.9    0.00 
 113    9:30   0.43   50.7    33    9.8   239    16.6   798.1    0.00 
 113    9:40   0.51   51.2    32    6.8   191    17.9   798.1    0.00 
 113    9:50   0.90   53.0    31    4.3   251    11.6   798.1    0.00 
 113   10:00   0.91   54.7    30    4.0   152    12.4   798.0    0.00 
 113   10:10   0.91   54.2    30    8.2   246    18.5   798.1    0.00 
 113   10:20   0.95   54.8    29   10.0   219    21.1   798.1    0.00 
 113   10:30   0.96   55.0    32   11.2   225    19.5   798.2    0.00 
 113   10:40   0.97   55.1    34   11.1   229    22.7   798.3    0.00 
 113   10:50   1.00   54.4    33   14.5   236    25.5   798.3    0.00 
 113   11:00   1.01   54.2    31    9.8   234    22.5   798.4    0.00 
 113   11:10   1.03   54.3    31   15.7   247    24.2   798.4    0.00 
 113   11:20   1.03   54.4    32   16.0   242    24.9   798.4    0.00 
 113   11:30   1.03   54.4    34   15.3   252    23.8   798.4    0.00 
 113   11:40   1.03   54.4    32   13.2   264    21.8   798.4    0.00 
 113   11:50   1.03   54.8    32   13.9   262    24.3   798.3    0.00 
 113   12:00   1.03   54.9    32   14.2   260    22.3   798.2    0.00 
 113   12:10   1.03   55.2    32   14.1   258    24.8   798.1    0.00 
 113   12:20   1.03   54.8    33   14.1   252    24.1   798.0    0.00 
 113   12:30   1.03   54.8    32   14.0   249    28.0   798.1    0.00 
 113   12:40   1.02   54.9    34   17.0   250    27.0   798.1    0.00 
 113   12:50   1.01   55.4    35   16.3   256    25.6   797.9    0.00 
 113   13:00   1.00   55.3    34   21.7   251    30.9   797.8    0.00 
 113   13:10   0.98   55.2    33   19.8   244    28.8   797.8    0.00 
 113   13:20   0.97   54.8    34   19.9   244    29.2   797.9    0.00 

Return to Bridgeport Valley graphs page.


Western Regional Climate Center,wrcc@dri.edu